Time;durP1;ratioP1;P1;durP2;ratioP2;P2;SDS_P1;SDS_P2;PMS_P1;PMS_P2;Temp;Humidity;BMP_temperature;BMP_pressure;BME280_temperature;BME280_humidity;BME280_pressure;Samples;Min_cycle;Max_cycle;Signal;HPM_P1;HPM_P2
2023/04/16 00:01:12;;;;;;;0.40;0.40;;;;;;;14.00;67.48;98949.66;5019758;28;20684;-57
2023/04/16 00:03:39;;;;;;;0.53;0.53;;;;;;;13.88;67.78;98941.72;5015294;28;20229;-58
2023/04/16 00:06:06;;;;;;;0.50;0.50;;;;;;;13.96;68.52;98961.03;5020925;28;20208;-58
2023/04/16 00:08:36;;;;;;;0.43;0.43;;;;;;;13.97;68.95;98956.72;5022209;28;20709;-58
2023/04/16 00:11:02;;;;;;;0.50;0.50;;;;;;;13.85;68.81;98958.19;5022665;28;20201;-58
2023/04/16 00:13:29;;;;;;;0.40;0.40;;;;;;;13.82;68.82;98942.03;5025739;28;20200;-58
2023/04/16 00:15:57;;;;;;;0.50;0.50;;;;;;;13.74;69.30;98939.00;5022006;28;20203;-58
2023/04/16 00:18:25;;;;;;;0.50;0.50;;;;;;;13.63;69.58;98940.38;5020560;28;20198;-58
2023/04/16 00:20:52;;;;;;;0.60;0.60;;;;;;;13.58;70.01;98939.78;5020693;28;20217;-58
2023/04/16 00:23:19;;;;;;;0.70;0.70;;;;;;;13.57;70.28;98945.81;5018956;28;20757;-58
2023/04/16 00:25:48;;;;;;;0.50;0.50;;;;;;;13.59;70.45;98944.03;5018754;28;20210;-59
2023/04/16 00:28:14;;;;;;;0.40;0.40;;;;;;;13.62;70.80;98945.59;5018446;28;20210;-58
2023/04/16 00:30:41;;;;;;;0.40;0.40;;;;;;;13.62;71.34;98951.59;5023830;28;20204;-58
2023/04/16 00:33:08;;;;;;;0.60;0.60;;;;;;;13.63;71.72;98955.81;5022373;28;20720;-58
2023/04/16 00:35:35;;;;;;;0.50;0.50;;;;;;;13.63;71.73;98950.66;5020083;28;20620;-58
2023/04/16 00:38:01;;;;;;;0.50;0.50;;;;;;;13.67;72.00;98964.22;5023396;28;20225;-58
2023/04/16 00:40:28;;;;;;;0.57;0.57;;;;;;;13.56;72.11;98957.06;5020274;28;20209;-58
2023/04/16 00:42:56;;;;;;;0.50;0.50;;;;;;;13.62;71.98;98972.19;5022224;28;20735;-58
2023/04/16 00:45:23;;;;;;;0.60;0.60;;;;;;;13.60;72.45;98974.00;5020278;28;20209;-59
2023/04/16 00:47:50;;;;;;;0.50;0.50;;;;;;;13.59;72.63;98972.34;5020862;28;20202;-58
2023/04/16 00:50:17;;;;;;;0.60;0.60;;;;;;;13.52;72.97;98960.69;5022162;28;20202;-58
2023/04/16 00:52:47;;;;;;;0.53;0.53;;;;;;;13.58;73.03;98965.53;5023020;28;20217;-58
2023/04/16 00:55:14;;;;;;;0.50;0.50;;;;;;;13.56;73.90;98971.66;5018329;28;20622;-58
2023/04/16 00:57:41;;;;;;;0.40;0.40;;;;;;;13.59;73.92;98968.94;5026346;28;20226;-58
2023/04/16 01:00:10;;;;;;;0.50;0.50;;;;;;;13.56;73.87;98971.66;5023505;28;20747;-58
2023/04/16 01:02:37;;;;;;;0.50;0.50;;;;;;;13.50;74.14;98967.66;5019733;28;20206;-58
2023/04/16 01:05:05;;;;;;;0.40;0.40;;;;;;;13.50;73.87;98962.50;5031155;28;20221;-58
2023/04/16 01:07:31;;;;;;;0.43;0.43;;;;;;;13.40;73.69;98943.25;5032643;28;20193;-58
2023/04/16 01:09:59;;;;;;;0.50;0.50;;;;;;;13.51;74.49;98959.00;5032566;28;20195;-58
2023/04/16 01:12:26;;;;;;;0.50;0.50;;;;;;;13.45;74.45;98954.16;5031780;28;20205;-58
2023/04/16 01:14:52;;;;;;;0.50;0.50;;;;;;;13.47;74.48;98962.63;5032497;28;20209;-58
2023/04/16 01:17:21;;;;;;;0.47;0.47;;;;;;;13.47;74.72;98960.06;5031984;28;20221;-58
2023/04/16 01:19:47;;;;;;;0.53;0.53;;;;;;;13.35;74.88;98952.94;5031723;28;20197;-58
2023/04/16 01:22:16;;;;;;;0.50;0.50;;;;;;;13.40;75.34;98957.88;5031853;28;20201;-58
2023/04/16 01:24:42;;;;;;;0.50;0.50;;;;;;;13.30;75.46;98946.34;5032329;28;20232;-58
2023/04/16 01:27:09;;;;;;;0.60;0.60;;;;;;;13.33;75.85;98965.06;5032262;28;20204;-58
2023/04/16 01:29:36;;;;;;;0.40;0.40;;;;;;;13.28;76.42;98956.72;5031300;28;20682;-58
2023/04/16 01:32:03;;;;;;;0.50;0.50;;;;;;;13.28;76.62;98956.72;5031530;28;20669;-58
2023/04/16 01:34:29;;;;;;;0.50;0.50;;;;;;;13.22;76.46;98944.13;5032220;28;20304;-58
2023/04/16 01:36:56;;;;;;;0.50;0.50;;;;;;;13.26;76.74;98953.38;5031382;28;20609;-58
2023/04/16 01:39:24;;;;;;;0.40;0.40;;;;;;;13.26;76.80;98950.81;5029542;28;20236;-58
2023/04/16 01:41:51;;;;;;;0.60;0.60;;;;;;;13.25;76.69;98951.72;5031078;28;20292;-58
2023/04/16 01:44:18;;;;;;;0.50;0.50;;;;;;;13.26;76.76;98952.53;5031759;28;20723;-59
2023/04/16 01:46:45;;;;;;;0.57;0.57;;;;;;;13.26;76.83;98952.53;5032167;28;20209;-58
2023/04/16 01:49:11;;;;;;;0.60;0.60;;;;;;;13.24;76.61;98960.34;5032168;28;20674;-58
2023/04/16 01:51:38;;;;;;;0.50;0.50;;;;;;;13.23;76.99;98948.38;5031541;28;20241;-58
2023/04/16 01:54:05;;;;;;;0.47;0.47;;;;;;;13.24;76.84;98954.38;5031778;28;20202;-58
2023/04/16 01:56:33;;;;;;;0.50;0.50;;;;;;;13.25;76.62;98951.72;5031536;28;20221;-57
2023/04/16 01:59:00;;;;;;;0.40;0.40;;;;;;;13.22;76.32;98957.00;5031104;28;20224;-59
2023/04/16 02:01:27;;;;;;;0.50;0.50;;;;;;;13.23;76.83;98952.69;5031233;28;20209;-58
2023/04/16 02:03:54;;;;;;;0.50;0.50;;;;;;;13.21;76.90;98945.06;5024867;28;20252;-58
2023/04/16 02:06:20;;;;;;;0.50;0.50;;;;;;;13.15;76.25;98941.03;5019970;28;20245;-58
2023/04/16 02:08:47;;;;;;;0.50;0.50;;;;;;;13.19;76.58;98948.59;5019258;28;20209;-58
2023/04/16 02:11:14;;;;;;;0.50;0.50;;;;;;;13.16;76.03;98944.44;5022940;28;20201;-58
2023/04/16 02:13:42;;;;;;;0.50;0.50;;;;;;;13.15;76.49;98942.75;5017626;28;20592;-58
2023/04/16 02:16:09;;;;;;;0.70;0.70;;;;;;;13.07;75.54;98939.69;5019155;28;20246;-57
2023/04/16 02:18:35;;;;;;;0.70;0.70;;;;;;;13.00;75.41;98934.00;5024793;28;20648;-58
2023/04/16 02:21:02;;;;;;;0.50;0.50;;;;;;;12.98;75.58;98937.56;5018963;28;20550;-58
2023/04/16 02:23:29;;;;;;;0.50;0.50;;;;;;;12.81;76.03;98948.63;5024167;28;20678;-58
2023/04/16 02:25:56;;;;;;;0.67;0.67;;;;;;;12.81;75.85;98955.50;5019571;28;20667;-58
2023/04/16 02:28:23;;;;;;;0.47;0.47;;;;;;;12.69;76.19;98930.38;5023065;28;20197;-58
2023/04/16 02:30:51;;;;;;;0.50;0.50;;;;;;;12.81;76.19;98950.38;5023740;28;20605;-59
2023/04/16 02:33:19;;;;;;;0.60;0.60;;;;;;;12.81;76.85;98953.78;5022611;28;20216;-58
2023/04/16 02:35:47;;;;;;;0.40;0.40;;;;;;;12.81;76.81;98950.38;5018640;28;20624;-58
2023/04/16 02:38:14;;;;;;;0.43;0.43;;;;;;;12.81;76.98;98955.50;5022887;28;20717;-58
2023/04/16 02:40:41;;;;;;;0.50;0.50;;;;;;;12.76;76.71;98948.03;5024597;28;20210;-58
2023/04/16 02:43:08;;;;;;;0.50;0.50;;;;;;;12.68;77.10;98959.56;5019121;28;20206;-58
2023/04/16 02:45:34;;;;;;;0.60;0.60;;;;;;;12.59;77.89;98964.22;5023057;28;20216;-58
2023/04/16 02:48:02;;;;;;;0.60;0.60;;;;;;;12.57;78.03;98966.00;5025795;28;20261;-58
2023/04/16 02:50:29;;;;;;;0.50;0.50;;;;;;;12.53;78.51;98951.66;5021851;28;20213;-59
2023/04/16 02:52:56;;;;;;;0.40;0.40;;;;;;;12.53;78.20;98955.94;5019984;28;20203;-57
2023/04/16 02:55:23;;;;;;;0.40;0.40;;;;;;;12.46;78.95;98959.69;5020740;28;20220;-58
2023/04/16 02:57:50;;;;;;;0.50;0.50;;;;;;;12.37;79.12;98960.94;5029175;28;20214;-58
2023/04/16 03:00:18;;;;;;;0.50;0.50;;;;;;;12.30;79.41;98959.53;5022058;28;20581;-58
2023/04/16 03:02:44;;;;;;;0.60;0.60;;;;;;;12.27;79.98;98964.81;5022987;28;20729;-58
2023/04/16 03:05:12;;;;;;;0.53;0.53;;;;;;;12.24;80.48;98959.81;5019656;28;20232;-58
2023/04/16 03:07:39;;;;;;;0.50;0.50;;;;;;;12.24;79.97;98959.81;5023705;28;20205;-59
2023/04/16 03:10:08;;;;;;;0.50;0.50;;;;;;;12.15;80.20;98947.34;5015537;28;20221;-58
2023/04/16 03:12:35;;;;;;;0.50;0.50;;;;;;;12.23;80.12;98953.00;5019041;28;20237;-58
2023/04/16 03:15:02;;;;;;;0.50;0.50;;;;;;;12.23;79.63;98950.44;5019105;28;20251;-58
2023/04/16 03:17:29;;;;;;;0.53;0.53;;;;;;;12.17;79.97;98950.69;5024841;28;20660;-58
2023/04/16 03:19:56;;;;;;;0.50;0.50;;;;;;;12.05;81.06;98951.25;5025948;28;20202;-58
2023/04/16 03:22:24;;;;;;;0.60;0.60;;;;;;;12.12;80.76;98962.09;5019762;28;20202;-58
2023/04/16 03:24:51;;;;;;;0.43;0.43;;;;;;;12.10;80.36;98957.00;5022160;28;20682;-58
2023/04/16 03:27:18;;;;;;;0.50;0.50;;;;;;;12.03;80.74;98948.72;5025125;28;20297;-58
2023/04/16 03:29:44;;;;;;;0.50;0.50;;;;;;;12.07;80.84;98963.13;5021601;28;20209;-58
2023/04/16 03:32:12;;;;;;;0.40;0.40;;;;;;;12.06;80.76;98963.16;5019455;28;20304;-58
2023/04/16 03:34:39;;;;;;;0.60;0.60;;;;;;;12.05;80.83;98964.09;5021618;28;20655;-57
2023/04/16 03:37:06;;;;;;;0.50;0.50;;;;;;;12.01;80.74;98962.53;5025447;28;20335;-58
2023/04/16 03:39:34;;;;;;;0.60;0.60;;;;;;;12.00;81.04;98971.97;5019549;28;20206;-58
2023/04/16 03:42:02;;;;;;;0.50;0.50;;;;;;;12.00;80.97;98966.00;5024352;28;20207;-58
2023/04/16 03:44:29;;;;;;;0.70;0.70;;;;;;;11.97;81.52;98971.28;5021337;28;20567;-58
2023/04/16 03:46:55;;;;;;;0.60;0.60;;;;;;;11.94;81.44;98972.25;5022810;28;20208;-57
2023/04/16 03:49:22;;;;;;;0.60;0.60;;;;;;;11.92;81.74;98980.91;5028446;28;20208;-58
2023/04/16 03:51:50;;;;;;;0.50;0.50;;;;;;;11.86;82.17;98971.72;5022183;28;20212;-58
2023/04/16 03:54:16;;;;;;;0.50;0.50;;;;;;;11.92;82.53;98983.50;5020449;28;20284;-58
2023/04/16 03:56:45;;;;;;;0.50;0.50;;;;;;;11.87;82.84;98980.25;5021321;28;20208;-58
2023/04/16 03:59:11;;;;;;;0.70;0.70;;;;;;;11.86;83.54;98976.00;5028478;28;20222;-57
2023/04/16 04:01:38;;;;;;;0.63;0.63;;;;;;;11.87;84.12;98975.97;5026067;28;20213;-58
2023/04/16 04:04:05;;;;;;;0.40;0.40;;;;;;;11.83;84.17;98976.97;5023429;28;20286;-58
2023/04/16 04:06:32;;;;;;;0.40;0.40;;;;;;;11.71;84.71;98984.38;5029833;28;20197;-58
2023/04/16 04:08:59;;;;;;;0.50;0.50;;;;;;;11.48;86.64;98992.97;5029689;28;20209;-58
2023/04/16 04:11:26;;;;;;;0.40;0.40;;;;;;;11.48;86.21;98993.81;5029323;28;20216;-58
2023/04/16 04:13:54;;;;;;;0.50;0.50;;;;;;;11.53;86.96;98994.44;5029499;28;20221;-57
2023/04/16 04:16:20;;;;;;;0.60;0.60;;;;;;;11.55;86.99;99000.38;5029697;28;20251;-58
2023/04/16 04:18:47;;;;;;;0.50;0.50;;;;;;;11.51;87.86;98988.56;5029392;28;20224;-58
2023/04/16 04:21:14;;;;;;;0.50;0.50;;;;;;;11.61;87.85;98999.28;5029313;28;20610;-58
2023/04/16 04:23:42;;;;;;;0.57;0.57;;;;;;;11.54;88.37;98983.28;5033412;28;20205;-58
2023/04/16 04:26:09;;;;;;;0.60;0.60;;;;;;;11.59;88.52;98996.78;5033346;28;20550;-58
2023/04/16 04:28:36;;;;;;;0.50;0.50;;;;;;;11.59;88.86;99001.94;5033649;28;20201;-58
2023/04/16 04:31:04;;;;;;;0.50;0.50;;;;;;;11.60;89.44;98998.44;5032730;28;20205;-58
2023/04/16 04:33:31;;;;;;;0.50;0.50;;;;;;;11.64;89.99;98999.16;5033371;28;20255;-58
2023/04/16 04:35:58;;;;;;;0.53;0.53;;;;;;;11.64;90.45;99008.59;5034407;28;20197;-57
2023/04/16 04:38:25;;;;;;;0.60;0.60;;;;;;;11.55;91.05;98984.13;5032800;28;20689;-59
2023/04/16 04:40:52;;;;;;;0.40;0.40;;;;;;;11.64;91.14;98998.31;5032874;28;20216;-58
2023/04/16 04:43:19;;;;;;;0.97;0.97;;;;;;;11.74;91.11;99009.91;5032596;28;20198;-58
2023/04/16 04:45:47;;;;;;;0.50;0.50;;;;;;;11.76;90.91;99008.13;5032794;28;20209;-58
2023/04/16 04:48:16;;;;;;;0.60;0.60;;;;;;;11.79;90.95;99002.88;5033031;28;20247;-58
2023/04/16 04:50:44;;;;;;;0.70;0.70;;;;;;;11.82;90.47;99000.19;5032759;28;20202;-58
2023/04/16 04:53:13;;;;;;;0.50;0.50;;;;;;;11.86;90.79;99010.25;5032909;28;20212;-58
2023/04/16 04:55:40;;;;;;;0.30;0.30;;;;;;;11.92;90.63;99004.03;5033283;28;20585;-58
2023/04/16 04:58:08;;;;;;;0.50;0.50;;;;;;;11.86;90.78;98984.56;5031731;28;20249;-58
2023/04/16 05:00:35;;;;;;;0.70;0.70;;;;;;;11.92;90.66;98999.72;5030989;28;20271;-58
2023/04/16 05:03:03;;;;;;;0.50;0.50;;;;;;;11.88;89.98;98994.78;5032569;28;20205;-57
2023/04/16 05:05:31;;;;;;;0.57;0.57;;;;;;;11.82;89.59;98997.63;5022177;28;20237;-58
2023/04/16 05:07:58;;;;;;;0.70;0.70;;;;;;;11.86;89.16;98996.56;5025488;28;20684;-57
2023/04/16 05:10:25;;;;;;;0.50;0.50;;;;;;;11.82;89.70;98987.34;5028638;28;20690;-58
2023/04/16 05:12:52;;;;;;;0.57;0.57;;;;;;;11.77;89.77;98990.09;5021450;28;20205;-58
2023/04/16 05:15:19;;;;;;;0.53;0.53;;;;;;;11.84;89.72;99000.94;5025790;28;20214;-59
2023/04/16 05:17:45;;;;;;;0.60;0.60;;;;;;;11.87;90.26;99005.94;5018927;28;20226;-58
2023/04/16 05:20:13;;;;;;;0.50;0.50;;;;;;;11.93;90.76;99003.13;5025469;28;20225;-58
2023/04/16 05:22:41;;;;;;;0.67;0.67;;;;;;;12.00;91.56;99005.38;5021599;28;20198;-58
2023/04/16 05:25:08;;;;;;;0.50;0.50;;;;;;;12.04;91.35;99006.09;5026212;28;20201;-58
2023/04/16 05:27:35;;;;;;;0.47;0.47;;;;;;;12.09;93.86;98999.84;5026919;28;20746;-59
2023/04/16 05:30:02;;;;;;;0.60;0.60;;;;;;;12.13;94.61;98999.72;5025782;28;20644;-57
2023/04/16 05:32:29;;;;;;;0.90;0.90;;;;;;;12.00;95.46;98981.41;5026013;28;20213;-57
2023/04/16 05:34:56;;;;;;;0.50;0.50;;;;;;;12.30;95.46;99005.81;5021506;28;20205;-58
2023/04/16 05:37:22;;;;;;;0.50;0.50;;;;;;;12.23;94.50;98988.13;5025665;28;20662;-58
2023/04/16 05:39:51;;;;;;;0.50;0.50;;;;;;;12.44;93.07;99008.59;5021918;28;20256;-58
2023/04/16 05:42:17;;;;;;;0.50;0.50;;;;;;;12.53;92.14;99022.81;5025729;28;20205;-58
2023/04/16 05:44:44;;;;;;;0.60;0.60;;;;;;;12.63;92.44;99013.78;5024097;28;20198;-58
2023/04/16 05:47:11;;;;;;;0.40;0.40;;;;;;;12.66;93.30;99013.63;5023189;28;20301;-57
2023/04/16 05:49:38;;;;;;;0.50;0.50;;;;;;;12.71;92.01;99013.41;5023235;28;20202;-58
2023/04/16 05:52:06;;;;;;;0.57;0.57;;;;;;;12.84;91.06;99029.97;5023627;28;20261;-58
2023/04/16 05:54:32;;;;;;;0.47;0.47;;;;;;;12.98;89.78;99030.19;5022984;28;20210;-58
2023/04/16 05:57:01;;;;;;;0.60;0.60;;;;;;;13.05;89.43;99026.44;5015380;28;20209;-58
2023/04/16 05:59:29;;;;;;;0.33;0.33;;;;;;;13.23;92.06;99028.19;5022101;28;20253;-57
2023/04/16 06:01:56;;;;;;;0.60;0.60;;;;;;;13.39;91.33;99042.00;5021349;28;20512;-58
2023/04/16 06:04:25;;;;;;;0.50;0.50;;;;;;;13.68;93.02;99028.56;5024434;28;20712;-58
2023/04/16 06:06:52;;;;;;;0.50;0.50;;;;;;;14.00;89.83;99020.97;5027473;28;20272;-58
2023/04/16 06:09:18;;;;;;;0.43;0.43;;;;;;;14.39;89.96;99029.31;5022074;28;20206;-58
2023/04/16 06:11:45;;;;;;;0.57;0.57;;;;;;;14.86;85.84;99031.16;5018626;28;20203;-58
2023/04/16 06:14:14;;;;;;;0.50;0.50;;;;;;;15.32;81.83;99030.31;5024461;28;20659;-57
2023/04/16 06:16:41;;;;;;;0.40;0.40;;;;;;;15.75;79.99;99019.28;5026657;28;20265;-58
2023/04/16 06:19:08;;;;;;;0.50;0.50;;;;;;;16.07;74.99;99024.34;5029357;28;20270;-58
2023/04/16 06:21:36;;;;;;;0.60;0.60;;;;;;;16.38;71.20;99024.19;5023330;28;20217;-58
2023/04/16 06:24:03;;;;;;;0.60;0.60;;;;;;;16.65;70.96;99022.56;5018479;28;20244;-58
2023/04/16 06:26:31;;;;;;;0.50;0.50;;;;;;;16.90;70.25;99021.06;5025109;28;20209;-58
2023/04/16 06:28:58;;;;;;;0.60;0.60;;;;;;;17.00;66.58;99011.78;5023680;28;20209;-58
2023/04/16 06:31:26;;;;;;;0.70;0.70;;;;;;;17.02;67.40;99004.78;5026006;28;20208;-58
2023/04/16 06:33:53;;;;;;;0.63;0.63;;;;;;;17.28;67.56;99015.16;5015841;28;20209;-59
2023/04/16 06:36:19;;;;;;;0.70;0.70;;;;;;;17.24;67.14;98998.13;5024787;28;20754;-58
2023/04/16 06:38:46;;;;;;;0.57;0.57;;;;;;;17.33;66.63;99014.84;5023320;28;20228;-59
2023/04/16 06:41:14;;;;;;;0.50;0.50;;;;;;;17.37;67.88;99016.31;5025183;28;21675;-58
2023/04/16 06:43:41;;;;;;;0.40;0.40;;;;;;;17.23;68.40;98998.22;5020625;28;20205;-58
2023/04/16 06:46:07;;;;;;;0.50;0.50;;;;;;;17.46;67.55;99013.13;5022288;28;20202;-59
2023/04/16 06:48:36;;;;;;;0.63;0.63;;;;;;;17.54;68.02;99013.50;5026303;28;20197;-58
2023/04/16 06:51:02;;;;;;;1.13;1.07;;;;;;;17.72;65.88;99014.91;5027168;28;20216;-58
2023/04/16 06:53:29;;;;;;;0.70;0.70;;;;;;;17.62;67.16;99010.41;5021495;28;20640;-58
2023/04/16 06:55:56;;;;;;;0.63;0.63;;;;;;;17.60;67.09;99017.47;5020731;28;20335;-59
2023/04/16 06:58:23;;;;;;;0.80;0.80;;;;;;;17.36;68.38;99022.41;5025404;28;20632;-58
2023/04/16 07:00:49;;;;;;;0.50;0.50;;;;;;;17.35;71.32;99018.16;5026109;28;20201;-58
2023/04/16 07:03:16;;;;;;;6.00;0.93;;;;;;;17.11;71.54;99014.53;5023752;28;20273;-58
2023/04/16 07:05:44;;;;;;;1.40;1.40;;;;;;;17.19;72.23;99014.88;5030463;28;20201;-59
2023/04/16 07:08:11;;;;;;;0.97;0.97;;;;;;;16.72;73.24;99008.31;5028683;28;20197;-58
2023/04/16 07:10:38;;;;;;;0.50;0.50;;;;;;;16.88;72.96;99007.38;5030098;28;20213;-58
2023/04/16 07:13:05;;;;;;;0.63;0.63;;;;;;;16.99;72.59;99010.16;5030409;28;20693;-58
2023/04/16 07:15:32;;;;;;;1.20;1.20;;;;;;;16.92;72.32;99003.69;5030116;28;20197;-58
2023/04/16 07:17:58;;;;;;;0.83;0.83;;;;;;;17.39;72.84;99011.03;5029845;28;20206;-58
2023/04/16 07:20:25;;;;;;;0.50;0.50;;;;;;;17.58;71.76;99004.59;5029083;28;20214;-58
2023/04/16 07:22:53;;;;;;;0.40;0.40;;;;;;;17.76;70.80;99003.41;5029252;28;20264;-58
2023/04/16 07:25:20;;;;;;;0.60;0.60;;;;;;;17.59;69.55;98995.06;5027131;28;20206;-59
2023/04/16 07:27:47;;;;;;;0.57;0.53;;;;;;;17.66;69.34;98994.56;5030403;28;20340;-58
2023/04/16 07:30:14;;;;;;;0.40;0.40;;;;;;;17.84;67.65;99005.47;5028981;28;20204;-59
2023/04/16 07:32:41;;;;;;;0.47;0.47;;;;;;;18.02;67.48;99003.44;5029594;28;20733;-59
2023/04/16 07:35:08;;;;;;;0.60;0.60;;;;;;;18.38;66.74;99001.78;5028643;28;20210;-58
2023/04/16 07:37:35;;;;;;;0.40;0.40;;;;;;;18.55;65.48;99005.84;5028971;28;20252;-58
2023/04/16 07:40:04;;;;;;;0.53;0.53;;;;;;;18.54;66.30;98986.03;5029339;28;20277;-59
2023/04/16 07:42:31;;;;;;;0.50;0.50;;;;;;;18.56;63.79;98993.69;5027443;28;20221;-58
2023/04/16 07:44:57;;;;;;;0.40;0.40;;;;;;;18.45;63.79;99001.38;5028385;28;20202;-58
2023/04/16 07:47:25;;;;;;;0.40;0.40;;;;;;;18.55;64.73;98992.03;5026940;28;20201;-58
2023/04/16 07:49:52;;;;;;;0.53;0.53;;;;;;;18.53;63.51;98989.56;5029852;28;20672;-59
2023/04/16 07:52:19;;;;;;;0.33;0.33;;;;;;;18.65;65.11;98993.91;5029195;28;20287;-59
2023/04/16 07:54:46;;;;;;;0.40;0.40;;;;;;;18.16;66.18;98972.19;5028250;28;20214;-59
2023/04/16 07:57:15;;;;;;;4.27;0.80;;;;;;;18.33;67.45;98983.09;5028392;28;20206;-59
2023/04/16 07:59:42;;;;;;;0.53;0.53;;;;;;;18.52;66.62;98969.72;5029272;28;20275;-58
2023/04/16 08:02:12;;;;;;;0.40;0.40;;;;;;;18.94;66.79;98972.84;5027096;28;20206;-58
2023/04/16 08:04:39;;;;;;;0.47;0.47;;;;;;;18.94;64.45;98978.03;5026875;28;20241;-58
2023/04/16 08:07:06;;;;;;;0.43;0.43;;;;;;;18.84;63.62;98970.91;5029389;28;20329;-59
2023/04/16 08:09:33;;;;;;;0.50;0.50;;;;;;;18.99;64.89;98975.94;5030059;28;20203;-59
2023/04/16 08:12:00;;;;;;;0.53;0.53;;;;;;;18.94;60.83;98978.03;5027803;28;20289;-59
2023/04/16 08:14:29;;;;;;;0.43;0.43;;;;;;;18.81;62.66;98980.66;5030137;28;20678;-60
2023/04/16 08:16:56;;;;;;;0.40;0.40;;;;;;;18.77;62.93;98984.44;5029827;28;20199;-59
2023/04/16 08:19:23;;;;;;;0.40;0.40;;;;;;;18.73;63.59;98981.22;5029285;28;20549;-59
2023/04/16 08:21:50;;;;;;;0.70;0.70;;;;;;;18.63;61.56;98985.41;5029635;28;20195;-60
2023/04/16 08:24:16;;;;;;;0.73;0.73;;;;;;;18.52;60.25;98982.69;5029823;28;20690;-59
2023/04/16 08:26:43;;;;;;;0.40;0.40;;;;;;;18.42;59.67;98970.44;5029890;28;20649;-57
2023/04/16 08:29:10;;;;;;;0.43;0.43;;;;;;;18.41;60.30;98980.00;5029670;28;20197;-60
2023/04/16 08:31:38;;;;;;;0.40;0.40;;;;;;;18.35;59.61;98985.59;5030074;28;20202;-59
2023/04/16 08:34:05;;;;;;;0.87;0.87;;;;;;;18.57;61.89;98980.63;5029116;28;20199;-60
2023/04/16 08:36:32;;;;;;;1.83;1.73;;;;;;;18.79;61.52;98980.78;5029825;28;20202;-60
2023/04/16 08:38:58;;;;;;;0.60;0.60;;;;;;;18.90;61.58;98982.63;5029836;28;20245;-60
2023/04/16 08:41:27;;;;;;;0.40;0.40;;;;;;;18.88;60.42;98980.13;5030132;28;20206;-59
2023/04/16 08:43:55;;;;;;;0.40;0.40;;;;;;;18.70;61.49;98981.44;5029150;28;20280;-59
2023/04/16 08:46:24;;;;;;;0.47;0.47;;;;;;;18.69;58.31;98964.19;5029240;28;20297;-59
2023/04/16 08:48:55;;;;;;;0.53;0.53;;;;;;;18.76;58.12;98978.41;5027831;28;20194;-59
2023/04/16 08:51:23;;;;;;;0.93;0.93;;;;;;;18.89;60.56;98960.19;5027613;28;20206;-60
2023/04/16 08:53:53;;;;;;;0.40;0.40;;;;;;;19.08;60.63;98970.94;5026488;28;20261;-58
2023/04/16 08:56:23;;;;;;;0.67;0.67;;;;;;;18.92;59.52;98974.72;5029061;28;20287;-59
2023/04/16 08:58:51;;;;;;;0.80;0.80;;;;;;;18.55;60.91;98972.09;5029032;28;20566;-61
2023/04/16 09:01:19;;;;;;;0.40;0.40;;;;;;;18.67;61.65;98963.47;5029062;28;20216;-60
2023/04/16 09:03:48;;;;;;;0.47;0.47;;;;;;;18.73;61.48;98960.44;5030183;28;20742;-59
2023/04/16 09:06:17;;;;;;;0.60;0.60;;;;;;;18.93;60.26;98960.81;5025937;28;20216;-61
2023/04/16 09:08:45;;;;;;;0.40;0.40;;;;;;;19.13;59.46;98952.38;5030910;28;20207;-60
2023/04/16 09:11:13;;;;;;;0.57;0.57;;;;;;;19.19;59.33;98946.78;5032431;28;20261;-59
2023/04/16 09:13:40;;;;;;;0.53;0.53;;;;;;;19.36;57.72;98944.59;5032585;28;20219;-59
2023/04/16 09:16:08;;;;;;;0.50;0.50;;;;;;;19.34;57.34;98956.06;5031748;28;20707;-59
2023/04/16 09:18:35;;;;;;;0.40;0.40;;;;;;;19.48;57.42;98942.91;5030310;28;20304;-60
2023/04/16 09:21:03;;;;;;;0.40;0.40;;;;;;;19.64;56.63;98935.63;5032748;28;20598;-59
2023/04/16 09:23:31;;;;;;;0.40;0.40;;;;;;;19.74;54.40;98933.97;5031108;28;20675;-66
2023/04/16 09:25:59;;;;;;;0.43;0.43;;;;;;;19.95;56.33;98935.91;5030689;28;20211;-66
2023/04/16 09:28:39;;;;;;;0.33;0.33;;;;;;;20.18;52.77;98924.59;5029385;28;20272;-65
2023/04/16 09:31:11;;;;;;;0.40;0.40;;;;;;;20.24;52.62;98916.31;5032182;28;20284;-65
2023/04/16 09:33:37;;;;;;;0.40;0.40;;;;;;;20.38;53.13;98918.72;5029757;28;20265;-65
2023/04/16 09:36:05;;;;;;;0.40;0.40;;;;;;;20.59;49.94;98914.41;5028731;28;20204;-65
2023/04/16 09:38:51;;;;;;;0.37;0.37;;;;;;;20.76;50.76;98895.69;5027206;28;20227;-66
2023/04/16 09:41:18;;;;;;;0.40;0.40;;;;;;;20.82;48.46;98903.00;5023165;28;20211;-65
2023/04/16 09:43:54;;;;;;;0.40;0.40;;;;;;;20.78;47.32;98908.56;5024442;28;20775;-66
2023/04/16 09:46:21;;;;;;;0.43;0.43;;;;;;;20.81;49.05;98906.56;5031837;28;20291;-67
2023/04/16 09:48:47;;;;;;;0.40;0.40;;;;;;;20.97;49.55;98905.34;5033279;28;20211;-66
2023/04/16 09:51:14;;;;;;;0.30;0.30;;;;;;;21.02;48.84;98901.41;5033215;28;20259;-67
2023/04/16 09:53:41;;;;;;;0.30;0.30;;;;;;;21.17;51.25;98899.34;5033488;28;20201;-68
2023/04/16 09:56:11;;;;;;;0.40;0.40;;;;;;;21.01;49.19;98891.09;5033485;28;20648;-67
2023/04/16 09:58:38;;;;;;;0.40;0.40;;;;;;;21.17;47.96;98889.75;5033171;28;20216;-66
2023/04/16 10:01:08;;;;;;;0.40;0.40;;;;;;;21.00;47.75;98897.28;5033124;28;20217;-67
2023/04/16 10:03:36;;;;;;;0.40;0.40;;;;;;;20.80;49.35;98884.06;5032722;28;20316;-67
2023/04/16 10:06:08;;;;;;;0.30;0.30;;;;;;;20.80;46.90;98878.88;5033400;28;20204;-66
2023/04/16 10:08:35;;;;;;;0.40;0.40;;;;;;;20.86;47.98;98888.78;5032652;28;20292;-67
2023/04/16 10:11:02;;;;;;;0.40;0.40;;;;;;;20.84;46.99;98895.09;5032959;28;20695;-67
2023/04/16 10:13:32;;;;;;;0.30;0.30;;;;;;;20.50;47.71;98894.31;5033397;28;20215;-66
2023/04/16 10:15:59;;;;;;;0.50;0.50;;;;;;;20.53;48.82;98896.66;5032735;28;20208;-66
2023/04/16 10:18:27;;;;;;;0.63;0.63;;;;;;;20.50;48.46;98894.31;5033048;28;20198;-67
2023/04/16 10:20:54;;;;;;;0.60;0.60;;;;;;;20.60;48.79;98886.59;5032708;28;20221;-66
2023/04/16 10:23:21;;;;;;;0.47;0.47;;;;;;;20.65;48.36;98893.09;5032959;28;20224;-66
2023/04/16 10:25:49;;;;;;;0.90;0.90;;;;;;;20.37;49.22;98864.97;5033046;28;20214;-66
2023/04/16 10:28:16;;;;;;;0.80;0.80;;;;;;;20.69;50.12;98886.69;5032824;28;20203;-67
2023/04/16 10:30:51;;;;;;;0.50;0.50;;;;;;;20.93;49.49;98889.97;5032749;28;20197;-66
2023/04/16 10:33:21;;;;;;;0.47;0.47;;;;;;;21.07;50.44;98895.81;5033079;28;20695;-66
2023/04/16 10:35:49;;;;;;;0.37;0.37;;;;;;;21.08;49.51;98881.84;5032902;28;20736;-67
2023/04/16 10:38:24;;;;;;;0.50;0.50;;;;;;;21.21;48.20;98877.31;5032493;28;20205;-67
2023/04/16 10:40:58;;;;;;;0.47;0.47;;;;;;;21.26;46.75;98881.19;5032868;28;20274;-66
2023/04/16 10:43:25;;;;;;;0.40;0.40;;;;;;;21.00;47.47;98873.81;5032647;28;20291;-65
2023/04/16 10:45:53;;;;;;;0.30;0.30;;;;;;;21.06;49.21;98853.31;5032272;28;20208;-67
2023/04/16 10:48:20;;;;;;;0.30;0.30;;;;;;;21.27;48.76;98876.81;5017554;28;20598;-66
2023/04/16 10:50:55;;;;;;;0.30;0.30;;;;;;;21.15;51.00;98868.22;5032586;28;20616;-66
2023/04/16 10:53:24;;;;;;;0.57;0.57;;;;;;;21.16;50.19;98871.66;5032508;28;20200;-66
2023/04/16 10:55:58;;;;;;;0.40;0.40;;;;;;;21.14;51.68;98873.53;5032666;28;20211;-66
2023/04/16 10:58:28;;;;;;;0.50;0.50;;;;;;;21.15;51.27;98875.22;5032394;28;20201;-66
2023/04/16 11:01:00;;;;;;;0.50;0.50;;;;;;;20.95;52.19;98872.41;5032423;28;20260;-67
2023/04/16 11:03:31;;;;;;;0.40;0.40;;;;;;;20.91;52.36;98865.78;5032189;28;20716;-66
2023/04/16 11:06:11;;;;;;;0.40;0.40;;;;;;;20.97;53.77;98876.69;5032208;28;20244;-65
2023/04/16 11:08:39;;;;;;;0.30;0.30;;;;;;;21.02;53.37;98871.91;5032163;28;20236;-66
2023/04/16 11:11:06;;;;;;;0.40;0.40;;;;;;;21.05;54.22;98866.44;5032148;28;20201;-67
2023/04/16 11:13:35;;;;;;;0.60;0.60;;;;;;;21.10;53.42;98866.94;5032314;28;20299;-66
2023/04/16 11:16:04;;;;;;;0.40;0.40;;;;;;;21.12;53.20;98855.44;5031683;28;20207;-66
2023/04/16 11:18:39;;;;;;;0.40;0.40;;;;;;;21.24;51.96;98856.19;5032138;28;20242;-65
2023/04/16 11:21:09;;;;;;;0.30;0.30;;;;;;;20.99;52.54;98846.09;5025256;28;20224;-65
2023/04/16 11:23:47;;;;;;;0.50;0.50;;;;;;;21.15;52.78;98846.53;5031831;28;20204;-66
2023/04/16 11:26:21;;;;;;;0.50;0.50;;;;;;;20.94;53.21;98843.84;5031709;28;20288;-67
2023/04/16 11:28:50;;;;;;;0.30;0.30;;;;;;;20.87;53.83;98835.72;5031745;28;20290;-67
2023/04/16 11:31:18;;;;;;;0.50;0.50;;;;;;;20.81;54.25;98817.16;5030185;28;20198;-67
2023/04/16 11:33:45;;;;;;;0.37;0.37;;;;;;;20.75;55.08;98839.31;5029253;28;20219;-66
2023/04/16 11:36:12;;;;;;;0.47;0.47;;;;;;;20.58;57.05;98820.81;5031515;28;20202;-66